createdAt,value
2019-01-30T00:01:21.375Z,99069.87
2019-01-30T00:04:11.233Z,99063.11
2019-01-30T00:07:01.330Z,99055.66
2019-01-30T00:09:50.998Z,99059.33
2019-01-30T00:12:41.337Z,99048.90
2019-01-30T00:15:31.210Z,99050.30
2019-01-30T00:18:21.096Z,99055.83
2019-01-30T00:21:10.866Z,99051.43
2019-01-30T00:24:00.948Z,99049.77
2019-01-30T00:26:50.712Z,99041.98
2019-01-30T00:29:40.912Z,99039.94
2019-01-30T00:32:30.562Z,99032.59
2019-01-30T00:35:20.720Z,99034.63
2019-01-30T00:38:11.132Z,99026.03
2019-01-30T00:41:01.199Z,99028.69
2019-01-30T00:43:51.003Z,99012.52
2019-01-30T00:46:40.562Z,99016.80
2019-01-30T00:49:30.393Z,99011.36
2019-01-30T00:52:20.688Z,99005.14
2019-01-30T00:55:11.703Z,98999.11
2019-01-30T00:58:01.655Z,98994.80
2019-01-30T01:00:51.836Z,98994.68
2019-01-30T01:03:41.600Z,98999.61
2019-01-30T01:06:31.487Z,98996.43
2019-01-30T01:09:21.583Z,98998.38
2019-01-30T01:12:11.458Z,99002.45
2019-01-30T01:15:01.588Z,98999.70
2019-01-30T01:17:51.988Z,98989.88
2019-01-30T01:20:42.414Z,98997.64
2019-01-30T01:23:32.278Z,98990.79
2019-01-30T01:26:22.590Z,98988.45
2019-01-30T01:29:12.439Z,98985.57
2019-01-30T01:32:02.664Z,98983.85
2019-01-30T01:34:52.528Z,98981.99
2019-01-30T01:37:42.713Z,98981.31
2019-01-30T01:40:33.212Z,98981.26
2019-01-30T01:43:22.933Z,98978.70
2019-01-30T01:46:12.665Z,98980.46
2019-01-30T01:49:02.558Z,98969.39
2019-01-30T01:51:52.276Z,98967.23
2019-01-30T01:54:42.428Z,98958.47
2019-01-30T01:57:32.069Z,98956.61
2019-01-30T02:00:22.931Z,98956.20
2019-01-30T02:03:12.794Z,98960.19
2019-01-30T02:06:03.062Z,98959.57
2019-01-30T02:08:52.710Z,98957.63
2019-01-30T02:11:42.314Z,98951.48
2019-01-30T02:14:32.064Z,98946.45
2019-01-30T02:17:22.196Z,98946.45
2019-01-30T02:20:19.257Z,98938.59
2019-01-30T02:23:08.729Z,98938.70
2019-01-30T02:25:58.967Z,98941.13
2019-01-30T02:28:48.750Z,98936.14
2019-01-30T02:31:38.656Z,98939.91
2019-01-30T02:34:28.440Z,98925.19
2019-01-30T02:37:18.115Z,98926.03
2019-01-30T02:40:10.381Z,98914.07
2019-01-30T02:43:00.417Z,98906.60
2019-01-30T02:45:50.556Z,98910.20
2019-01-30T02:48:40.014Z,98903.87
2019-01-30T02:51:29.945Z,98899.06
2019-01-30T02:54:20.004Z,98901.83
2019-01-30T02:57:09.837Z,98903.27
2019-01-30T02:59:59.938Z,98902.11
2019-01-30T03:02:50.327Z,98891.48
2019-01-30T03:05:40.467Z,98900.38
2019-01-30T03:08:30.917Z,98897.41
2019-01-30T03:11:20.648Z,98892.52
2019-01-30T03:14:10.571Z,98888.41
2019-01-30T03:17:00.093Z,98881.05
2019-01-30T03:19:49.912Z,98885.41
2019-01-30T03:22:40.051Z,98870.91
2019-01-30T03:25:29.727Z,98871.02
2019-01-30T03:28:20.026Z,98870.17
2019-01-30T03:31:17.723Z,98875.47
2019-01-30T03:34:03.664Z,98875.38
2019-01-30T03:36:53.905Z,98867.17
2019-01-30T03:39:43.808Z,98870.95
2019-01-30T03:42:33.612Z,98868.50
2019-01-30T03:45:24.248Z,98867.06
2019-01-30T03:48:13.904Z,98865.13
2019-01-30T03:51:03.719Z,98860.52
2019-01-30T03:53:53.476Z,98860.61
2019-01-30T03:56:43.762Z,98851.32
2019-01-30T03:59:33.673Z,98852.30
2019-01-30T04:02:23.399Z,98850.77
2019-01-30T04:05:13.162Z,98843.28
2019-01-30T04:08:03.214Z,98841.16
2019-01-30T04:10:53.306Z,98843.40
2019-01-30T04:13:43.226Z,98833.49
2019-01-30T04:16:33.344Z,98833.08
2019-01-30T04:19:23.505Z,98831.76
2019-01-30T04:22:13.585Z,98833.99
2019-01-30T04:25:03.809Z,98826.35
2019-01-30T04:27:54.420Z,98825.16
2019-01-30T04:30:45.513Z,98816.22
2019-01-30T04:33:35.530Z,98810.89
2019-01-30T04:36:25.378Z,98806.70
2019-01-30T04:39:15.229Z,98794.94
2019-01-30T04:42:05.901Z,98796.92
2019-01-30T04:44:58.152Z,98791.74
2019-01-30T04:47:49.773Z,98789.30
2019-01-30T04:50:40.770Z,98783.39
2019-01-30T04:53:30.447Z,98786.80
2019-01-30T04:56:20.686Z,98781.00
2019-01-30T04:59:10.285Z,98784.44
2019-01-30T05:02:03.295Z,98780.70
2019-01-30T05:04:55.956Z,98773.42
2019-01-30T05:07:46.192Z,98769.86
2019-01-30T05:10:37.155Z,98774.80
2019-01-30T05:13:28.204Z,98769.16
2019-01-30T05:16:18.527Z,98772.36
2019-01-30T05:19:08.447Z,98767.43
2019-01-30T05:21:58.549Z,98775.52
2019-01-30T05:24:48.485Z,98766.91
2019-01-30T05:27:38.291Z,98772.55
2019-01-30T05:30:32.997Z,98767.33
2019-01-30T05:33:22.739Z,98773.77
2019-01-30T05:36:12.681Z,98781.45
2019-01-30T05:39:03.874Z,98775.33
2019-01-30T05:41:53.620Z,98774.33
2019-01-30T05:44:43.651Z,98774.02
2019-01-30T05:47:33.386Z,98773.06
2019-01-30T05:50:23.196Z,98769.01
2019-01-30T05:53:12.947Z,98764.91
2019-01-30T05:56:02.775Z,98750.31
2019-01-30T05:58:53.958Z,98757.00
2019-01-30T06:01:44.016Z,98748.77
2019-01-30T06:04:34.241Z,98746.39
2019-01-30T06:07:24.219Z,98737.42
2019-01-30T06:10:14.240Z,98735.81
2019-01-30T06:13:04.893Z,98733.05
2019-01-30T06:15:54.628Z,98731.91
2019-01-30T06:18:44.617Z,98736.50
2019-01-30T06:21:34.536Z,98743.06
2019-01-30T06:24:24.572Z,98742.13
2019-01-30T06:27:14.677Z,98741.81
2019-01-30T06:30:05.944Z,98734.27
2019-01-30T06:32:55.789Z,98732.51
2019-01-30T06:35:45.517Z,98735.17
2019-01-30T06:38:35.330Z,98738.26
2019-01-30T06:41:25.178Z,98739.38
2019-01-30T06:44:15.368Z,98739.08
2019-01-30T06:47:05.923Z,98741.73
2019-01-30T06:49:55.395Z,98735.10
2019-01-30T06:52:45.416Z,98727.30
2019-01-30T06:55:35.675Z,98724.14
2019-01-30T06:58:25.467Z,98731.27
2019-01-30T07:01:15.578Z,98726.41
2019-01-30T07:04:05.370Z,98722.94
2019-01-30T07:06:55.247Z,98724.59
2019-01-30T07:09:45.526Z,98717.23
2019-01-30T07:12:35.337Z,98716.19
2019-01-30T07:15:25.246Z,98718.95
2019-01-30T07:18:15.380Z,98710.88
2019-01-30T07:21:05.135Z,98709.16
2019-01-30T07:23:55.124Z,98713.14
2019-01-30T07:26:44.954Z,98716.12
2019-01-30T07:29:34.818Z,98718.78
2019-01-30T07:32:24.955Z,98720.42
2019-01-30T07:35:15.177Z,98730.84
2019-01-30T07:38:05.130Z,98728.69
2019-01-30T07:40:55.293Z,98727.05
2019-01-30T07:43:45.688Z,98723.38
2019-01-30T07:46:34.939Z,98724.89
2019-01-30T07:49:24.379Z,98730.72
2019-01-30T07:52:14.423Z,98722.81
2019-01-30T07:55:04.615Z,98717.28
2019-01-30T07:57:54.604Z,98723.00
2019-01-30T08:00:44.922Z,98719.94
2019-01-30T08:03:34.985Z,98720.92
2019-01-30T08:06:24.856Z,98716.09
2019-01-30T08:09:15.007Z,98721.27
2019-01-30T08:12:05.121Z,98720.03
2019-01-30T08:14:54.948Z,98722.76
2019-01-30T08:17:45.005Z,98719.30
2019-01-30T08:20:35.646Z,98722.88
2019-01-30T08:23:25.240Z,98717.21
2019-01-30T08:26:15.359Z,98721.08
2019-01-30T08:29:05.942Z,98719.39
2019-01-30T08:31:55.933Z,98722.02
2019-01-30T08:34:45.357Z,98719.27
2019-01-30T08:37:35.428Z,98709.28
2019-01-30T08:40:25.440Z,98716.63
2019-01-30T08:43:15.302Z,98723.04
2019-01-30T08:46:05.255Z,98722.94
2019-01-30T08:48:55.788Z,98725.11
2019-01-30T08:51:45.660Z,98726.93
2019-01-30T08:54:35.646Z,98722.33
2019-01-30T08:57:25.740Z,98725.06
2019-01-30T09:00:21.511Z,98727.72
2019-01-30T09:03:14.992Z,98724.18
2019-01-30T09:06:03.095Z,98723.33
2019-01-30T09:08:54.198Z,98723.19
2019-01-30T09:11:43.944Z,98724.75
2019-01-30T09:14:34.144Z,98724.69
2019-01-30T09:17:24.051Z,98726.29
2019-01-30T09:20:17.658Z,98722.29
2019-01-30T09:23:08.005Z,98725.45
2019-01-30T09:25:58.061Z,98715.78
2019-01-30T09:28:48.238Z,98698.73
2019-01-30T09:31:38.383Z,98716.78
2019-01-30T09:34:28.827Z,98727.92
2019-01-30T09:37:18.823Z,98715.56
2019-01-30T09:40:11.297Z,98718.84
2019-01-30T09:43:01.094Z,98716.89
2019-01-30T09:45:51.130Z,98720.69
2019-01-30T09:48:41.123Z,98708.66
2019-01-30T09:51:30.721Z,98705.26
2019-01-30T09:54:20.705Z,98704.16
2019-01-30T09:57:10.511Z,98703.11
2019-01-30T10:00:00.654Z,98701.42
2019-01-30T10:02:50.755Z,98692.63
2019-01-30T10:05:40.794Z,98680.39
2019-01-30T10:08:30.715Z,98675.80
2019-01-30T10:11:20.576Z,98675.00
2019-01-30T10:14:10.547Z,98678.11
2019-01-30T10:17:00.381Z,98675.76
2019-01-30T10:19:50.592Z,98664.52
2019-01-30T10:22:40.593Z,98668.22
2019-01-30T10:25:30.815Z,98654.91
2019-01-30T10:28:22.052Z,98668.47
2019-01-30T10:31:13.211Z,98671.89
2019-01-30T10:34:03.120Z,98665.40
2019-01-30T10:36:53.298Z,98659.55
2019-01-30T10:39:43.066Z,98657.36
2019-01-30T10:42:32.649Z,98655.03
2019-01-30T10:45:23.669Z,98659.98
2019-01-30T10:48:13.024Z,98652.73
2019-01-30T10:51:02.851Z,98648.41
2019-01-30T10:53:53.104Z,98646.47
2019-01-30T10:56:43.330Z,98640.59
2019-01-30T10:59:33.000Z,98639.63
2019-01-30T11:02:24.033Z,98637.42
2019-01-30T11:05:15.963Z,98636.37
2019-01-30T11:08:06.937Z,98629.61
2019-01-30T11:11:07.274Z,98635.87
2019-01-30T11:13:48.521Z,98630.95
2019-01-30T11:16:38.236Z,98638.76
2019-01-30T11:19:28.035Z,98624.27
2019-01-30T11:22:18.030Z,98620.16
2019-01-30T11:25:13.178Z,98622.25
2019-01-30T11:28:02.933Z,98607.15
2019-01-30T11:30:52.999Z,98592.91
2019-01-30T11:33:43.031Z,98598.31
2019-01-30T11:36:32.885Z,98600.70
2019-01-30T11:39:22.799Z,98594.28
2019-01-30T11:42:13.090Z,98591.30
2019-01-30T11:45:02.741Z,98587.67
2019-01-30T11:47:53.239Z,98589.97
2019-01-30T11:50:44.043Z,98579.20
2019-01-30T11:53:34.095Z,98583.51
2019-01-30T11:56:24.068Z,98574.55
2019-01-30T11:59:14.129Z,98569.04
2019-01-30T12:02:04.400Z,98569.63
2019-01-30T12:04:54.250Z,98571.08
2019-01-30T12:07:44.147Z,98564.88
2019-01-30T12:10:34.077Z,98564.06
2019-01-30T12:13:24.459Z,98562.07
2019-01-30T12:16:14.153Z,98559.09
2019-01-30T12:19:07.053Z,98557.95
2019-01-30T12:21:56.841Z,98553.81
2019-01-30T12:24:46.526Z,98552.20
2019-01-30T12:27:36.878Z,98550.33
2019-01-30T12:30:27.651Z,98562.31
2019-01-30T12:33:17.575Z,98567.06
2019-01-30T12:36:07.860Z,98561.98
2019-01-30T12:38:57.878Z,98561.10
2019-01-30T12:41:47.858Z,98562.31
2019-01-30T12:44:42.856Z,98558.61
2019-01-30T12:47:32.365Z,98569.02
2019-01-30T12:50:22.394Z,98562.06
2019-01-30T12:53:12.145Z,98553.92
2019-01-30T12:56:02.145Z,98552.76
2019-01-30T12:58:52.394Z,98547.30
2019-01-30T13:01:42.659Z,98543.19
2019-01-30T13:04:38.651Z,98548.16
2019-01-30T13:07:24.123Z,98543.89
2019-01-30T13:10:15.179Z,98543.84
2019-01-30T13:13:06.513Z,98544.55
2019-01-30T13:15:56.918Z,98544.36
2019-01-30T13:18:46.661Z,98536.16
2019-01-30T13:21:36.693Z,98534.75
2019-01-30T13:24:27.079Z,98549.73
2019-01-30T13:27:16.899Z,98558.66
2019-01-30T13:30:13.101Z,98548.27
2019-01-30T13:33:04.003Z,98553.38
2019-01-30T13:35:53.582Z,98543.53
2019-01-30T13:38:43.162Z,98544.23
2019-01-30T13:41:33.197Z,98538.61
2019-01-30T13:44:23.031Z,98538.09
2019-01-30T13:47:13.310Z,98533.53
2019-01-30T13:50:03.114Z,98546.34
2019-01-30T13:52:53.254Z,98543.13
2019-01-30T13:55:43.587Z,98542.25
2019-01-30T13:58:33.400Z,98538.52
2019-01-30T14:01:23.262Z,98544.38
2019-01-30T14:04:13.638Z,98541.58
2019-01-30T14:07:05.354Z,98537.72
2019-01-30T14:09:55.270Z,98541.62
2019-01-30T14:12:45.103Z,98540.11
2019-01-30T14:15:35.514Z,98541.73
2019-01-30T14:18:25.291Z,98538.36
2019-01-30T14:21:15.113Z,98539.12
2019-01-30T14:24:05.941Z,98535.85
2019-01-30T14:26:58.113Z,98537.94
2019-01-30T14:29:57.938Z,98534.94
2019-01-30T14:32:39.837Z,98530.98
2019-01-30T14:35:33.283Z,98526.83
2019-01-30T14:38:24.317Z,98532.45
2019-01-30T14:41:14.509Z,98529.12
2019-01-30T14:44:04.762Z,98526.33
2019-01-30T14:46:54.943Z,98532.82
2019-01-30T14:49:45.009Z,98534.82
2019-01-30T14:52:35.253Z,98535.75
2019-01-30T14:55:25.645Z,98524.75
2019-01-30T14:58:15.409Z,98529.65
2019-01-30T15:01:06.235Z,98530.84
2019-01-30T15:03:55.590Z,98530.53
2019-01-30T15:06:45.904Z,98520.01
2019-01-30T15:09:35.981Z,98515.81
2019-01-30T15:12:25.550Z,98522.23
2019-01-30T15:15:18.112Z,98524.13
2019-01-30T15:18:09.190Z,98522.20
2019-01-30T15:20:59.119Z,98522.51
2019-01-30T15:23:49.107Z,98528.62
2019-01-30T15:26:38.560Z,98529.02
2019-01-30T15:29:28.815Z,98530.13
2019-01-30T15:32:19.039Z,98525.76
2019-01-30T15:35:09.377Z,98530.16
2019-01-30T15:37:59.877Z,98533.96
2019-01-30T15:40:50.350Z,98531.05
2019-01-30T15:43:40.234Z,98530.02
2019-01-30T15:46:30.299Z,98532.20
2019-01-30T15:49:20.421Z,98538.19
2019-01-30T15:52:10.579Z,98540.70
2019-01-30T15:55:00.597Z,98543.01
2019-01-30T15:57:54.873Z,98543.52
2019-01-30T16:01:20.588Z,98547.59
2019-01-30T16:04:10.618Z,98543.89
2019-01-30T16:07:00.498Z,98547.20
2019-01-30T16:09:50.313Z,98544.45
2019-01-30T16:12:41.257Z,98552.73
2019-01-30T16:15:42.272Z,98544.41
2019-01-30T16:18:32.291Z,98555.29
2019-01-30T16:21:23.547Z,98550.77
2019-01-30T16:24:13.978Z,98551.33
2019-01-30T16:27:04.216Z,98556.86
2019-01-30T16:29:54.383Z,98557.90
2019-01-30T16:32:44.642Z,98565.20
2019-01-30T16:35:37.478Z,98566.14
2019-01-30T16:38:26.869Z,98570.61
2019-01-30T16:41:16.796Z,98566.09
2019-01-30T16:44:07.912Z,98571.94
2019-01-30T16:46:57.967Z,98576.47
2019-01-30T16:49:48.491Z,98576.59
2019-01-30T16:52:38.621Z,98574.16
2019-01-30T16:55:28.601Z,98578.48
2019-01-30T16:58:18.813Z,98581.05
2019-01-30T17:01:08.808Z,98585.81
2019-01-30T17:03:58.990Z,98588.30
2019-01-30T17:06:49.437Z,98588.95
2019-01-30T17:09:39.291Z,98592.23
2019-01-30T17:12:28.849Z,98581.23
2019-01-30T17:15:27.774Z,98587.88
2019-01-30T17:18:18.033Z,98592.64
2019-01-30T17:21:08.508Z,98585.20
2019-01-30T17:23:58.822Z,98582.59
2019-01-30T17:26:49.685Z,98583.86
2019-01-30T17:29:39.938Z,98586.36
2019-01-30T17:32:29.821Z,98577.83
2019-01-30T17:35:19.926Z,98579.73
2019-01-30T17:38:10.302Z,98582.47
2019-01-30T17:41:00.309Z,98588.58
2019-01-30T17:43:50.265Z,98585.91
2019-01-30T17:46:40.234Z,98588.52
2019-01-30T17:49:30.294Z,98589.61
2019-01-30T17:52:20.844Z,98594.23
2019-01-30T17:55:11.590Z,98584.45
2019-01-30T17:58:03.064Z,98586.55
2019-01-30T18:00:59.888Z,98589.10
2019-01-30T18:03:50.206Z,98587.49
2019-01-30T18:06:41.864Z,98588.76
2019-01-30T18:09:31.792Z,98586.66
2019-01-30T18:12:22.036Z,98596.94
2019-01-30T18:15:13.264Z,98585.73
2019-01-30T18:18:03.714Z,98586.88
2019-01-30T18:20:53.989Z,98589.27
2019-01-30T18:23:44.478Z,98591.61
2019-01-30T18:26:34.390Z,98587.88
2019-01-30T18:29:24.906Z,98586.13
2019-01-30T18:32:15.477Z,98585.70
2019-01-30T18:35:06.861Z,98589.77
2019-01-30T18:37:57.345Z,98593.39
2019-01-30T18:40:48.283Z,98591.02
2019-01-30T18:43:38.532Z,98595.23
2019-01-30T18:46:29.687Z,98596.12
2019-01-30T18:49:21.408Z,98594.24
2019-01-30T18:52:12.371Z,98593.77
2019-01-30T18:55:02.761Z,98593.02
2019-01-30T18:57:53.612Z,98602.70
2019-01-30T19:00:45.257Z,98596.58
2019-01-30T19:03:36.637Z,98599.80
2019-01-30T19:06:26.839Z,98596.91
2019-01-30T19:09:17.596Z,98599.21
2019-01-30T19:12:10.208Z,98599.17
2019-01-30T19:15:00.483Z,98599.81
2019-01-30T19:17:51.407Z,98597.52
2019-01-30T19:20:43.988Z,98590.93
2019-01-30T19:23:33.862Z,98602.06
2019-01-30T19:26:24.106Z,98604.44
2019-01-30T19:29:14.667Z,98603.30
2019-01-30T19:32:06.133Z,98605.45
2019-01-30T19:34:57.282Z,98601.56
2019-01-30T19:37:47.810Z,98606.23
2019-01-30T19:40:38.972Z,98599.04
2019-01-30T19:43:29.221Z,98605.79
2019-01-30T19:46:19.716Z,98603.48
2019-01-30T19:49:09.855Z,98605.79
2019-01-30T19:51:59.955Z,98609.92
2019-01-30T19:54:50.521Z,98609.80
2019-01-30T19:57:42.009Z,98609.09
2019-01-30T20:00:39.002Z,98607.19
2019-01-30T20:03:33.274Z,98611.31
2019-01-30T20:06:24.040Z,98611.65
2019-01-30T20:09:19.959Z,98615.14
2019-01-30T20:12:12.323Z,98620.55
2019-01-30T20:15:04.709Z,98615.59
2019-01-30T20:17:55.815Z,98614.70
2019-01-30T20:20:46.474Z,98613.01
2019-01-30T20:23:38.969Z,98623.06
2019-01-30T20:26:29.990Z,98624.98
2019-01-30T20:29:20.331Z,98627.95
2019-01-30T20:32:11.027Z,98628.34
2019-01-30T20:35:01.360Z,98633.75
2019-01-30T20:38:03.124Z,98632.93
2019-01-30T20:40:53.504Z,98627.83
2019-01-30T20:43:48.310Z,98628.91
2019-01-30T20:46:39.823Z,98631.02
2019-01-30T20:49:30.009Z,98642.60
2019-01-30T20:52:20.418Z,98645.67
2019-01-30T20:55:11.340Z,98645.55
2019-01-30T20:58:01.195Z,98645.80
2019-01-30T21:00:51.798Z,98647.27
2019-01-30T21:03:42.375Z,98645.30
2019-01-30T21:06:32.861Z,98649.28
2019-01-30T21:09:23.313Z,98654.00
2019-01-30T21:12:13.417Z,98651.27
2019-01-30T21:15:03.911Z,98651.81
2019-01-30T21:17:54.230Z,98644.33
2019-01-30T21:20:44.431Z,98656.03
2019-01-30T21:23:34.434Z,98657.77
2019-01-30T21:26:24.848Z,98659.28
2019-01-30T21:29:15.321Z,98654.57
2019-01-30T21:32:05.744Z,98660.28
2019-01-30T21:34:55.842Z,98665.16
2019-01-30T21:37:48.995Z,98663.11
2019-01-30T21:40:38.355Z,98663.42
2019-01-30T21:43:29.836Z,98655.58
2019-01-30T21:46:19.769Z,98668.02
2019-01-30T21:49:09.877Z,98670.88
2019-01-30T21:52:00.848Z,98674.83
2019-01-30T21:54:50.749Z,98673.61
2019-01-30T21:57:40.792Z,98666.58
2019-01-30T22:00:31.128Z,98668.44
2019-01-30T22:03:21.092Z,98667.66
2019-01-30T22:06:11.003Z,98667.59
2019-01-30T22:09:01.144Z,98666.00
2019-01-30T22:11:52.591Z,98669.84
2019-01-30T22:14:42.467Z,98667.86
2019-01-30T22:17:32.269Z,98670.14
2019-01-30T22:20:24.675Z,98677.22
2019-01-30T22:23:14.146Z,98679.77
2019-01-30T22:26:04.129Z,98674.61
2019-01-30T22:28:54.393Z,98675.64
2019-01-30T22:31:44.181Z,98684.55
2019-01-30T22:34:33.996Z,98686.02
2019-01-30T22:37:23.867Z,98699.91
2019-01-30T22:40:14.059Z,98699.70
2019-01-30T22:43:04.187Z,98699.70
2019-01-30T22:45:53.968Z,98704.93
2019-01-30T22:48:43.676Z,98703.38
2019-01-30T22:51:33.818Z,98712.08
2019-01-30T22:54:24.087Z,98706.51
2019-01-30T22:57:13.901Z,98711.00
2019-01-30T23:00:06.609Z,98709.30
2019-01-30T23:03:00.565Z,98699.48
2019-01-30T23:06:30.591Z,98705.47
2019-01-30T23:10:00.177Z,98701.79
2019-01-30T23:13:32.026Z,98715.53
2019-01-30T23:17:04.419Z,98706.73
2019-01-30T23:20:27.027Z,98705.52
2019-01-30T23:24:11.625Z,98701.89
2019-01-30T23:27:44.463Z,98699.65
2019-01-30T23:31:24.291Z,98707.09
2019-01-30T23:34:55.776Z,98704.24
2019-01-30T23:38:37.004Z,98702.44
2019-01-30T23:41:47.020Z,98706.14
2019-01-30T23:45:10.985Z,98703.88
2019-01-30T23:48:53.588Z,98708.83
2019-01-30T23:52:37.643Z,98709.29
2019-01-30T23:56:21.060Z,98706.73
2019-01-30T23:59:50.288Z,98709.72
